Terminal Aerodrome Forecast
Issued by NWS

Home | Current Version | Previous Version | Text Only | Print | Product List | Glossary On
Versions: 1 2 3 4 5 6 7 8 9 10 11 12 13 14
435
FTUS44 KLIX 231120
TAFGPT
TAF
KGPT 231120Z 2312/2412 00000KT P6SM VCTS SCT040CB
     FM231700 24006KT P6SM VCTS SCT030CB BKN100
     FM232100 21008KT 4SM -TSRA OVC015CB
     FM240500 26007KT P6SM OVC040=

USA.gov is the U.S. government's official web portal to all federal, state and local government web resources and services.